Time;durP1;ratioP1;P1;durP2;ratioP2;P2;SDS_P1;SDS_P2;PMS_P1;PMS_P2;Temp;Humidity;BMP_temperature;BMP_pressure;BME280_temperature;BME280_humidity;BME280_pressure;Samples;Min_cycle;Max_cycle;Signal;HPM_P1;HPM_P2
2022/03/07 11:39:50;;;;;;;3.72;2.30;;;;;;;9.08;39.76;102334.38;5092870;27;20415;-70
2022/03/07 11:42:18;;;;;;;5.13;2.45;;;;;;;9.30;39.21;102334.22;5071730;28;20049;-72
2022/03/07 11:44:48;;;;;;;3.85;2.17;;;;;;;9.47;37.69;102326.38;5073652;28;20578;-73
2022/03/07 11:47:17;;;;;;;6.07;2.35;;;;;;;9.22;38.92;102331.09;5073224;28;20059;-71
2022/03/07 11:49:44;;;;;;;2.55;1.55;;;;;;;9.31;39.25;102326.25;5072583;28;20130;-72
2022/03/07 11:52:15;;;;;;;3.10;2.08;;;;;;;9.18;38.52;102319.06;5078930;28;20052;-72
2022/03/07 11:54:53;;;;;;;2.83;2.03;;;;;;;8.93;39.25;102319.41;5083128;28;20055;-72
2022/03/07 11:57:32;;;;;;;2.38;1.58;;;;;;;9.00;38.40;102317.31;5087502;28;20044;-73
2022/03/07 12:00:24;;;;;;;5.35;2.50;;;;;;;9.22;38.99;102328.50;5085402;28;20036;-71
2022/03/07 12:02:52;;;;;;;2.90;2.08;;;;;;;9.34;39.24;102320.88;5077983;28;20126;-72
2022/03/07 12:05:23;;;;;;;2.75;1.95;;;;;;;9.04;39.40;102314.47;5070446;28;20036;-74
2022/03/07 12:07:50;;;;;;;2.30;1.88;;;;;;;8.82;39.83;102312.97;5072100;28;20297;-70
2022/03/07 12:10:18;;;;;;;3.70;2.13;;;;;;;9.14;39.62;102307.03;5074443;28;20052;-71
2022/03/07 12:12:44;;;;;;;4.45;1.38;;;;;;;9.09;38.49;102306.38;5071352;28;20098;-72
2022/03/07 12:15:14;;;;;;;1.65;1.27;;;;;;;9.27;38.62;102285.41;5070725;28;20058;-72
2022/03/07 12:17:41;;;;;;;4.63;2.28;;;;;;;9.52;39.28;102298.13;5071406;28;20048;-74
2022/03/07 12:20:08;;;;;;;2.47;1.77;;;;;;;9.51;38.33;102299.03;5068359;28;20044;-72
2022/03/07 12:22:35;;;;;;;5.03;2.20;;;;;;;9.44;37.83;102289.78;5074666;28;20044;-73
2022/03/07 12:25:05;;;;;;;3.45;1.92;;;;;;;10.17;38.20;102289.44;5068729;28;20041;-74
2022/03/07 12:27:37;;;;;;;2.17;1.67;;;;;;;10.41;36.81;102274.97;5073861;28;20126;-72
2022/03/07 12:30:06;;;;;;;4.07;1.80;;;;;;;9.65;37.31;102282.53;5071152;28;20033;-73
2022/03/07 12:32:33;;;;;;;2.33;1.63;;;;;;;9.54;36.76;102272.66;5072118;28;20047;-72
2022/03/07 12:35:00;;;;;;;2.85;1.55;;;;;;;9.65;37.36;102274.66;5067026;28;20048;-72
2022/03/07 12:37:28;;;;;;;5.85;2.20;;;;;;;9.74;38.57;102274.19;5066002;28;20124;-74
2022/03/07 12:39:57;;;;;;;3.25;1.73;;;;;;;9.25;39.30;102270.63;5071556;28;20051;-73
2022/03/07 12:42:26;;;;;;;2.90;2.00;;;;;;;9.31;39.03;102267.72;5068983;28;20040;-73
2022/03/07 12:44:55;;;;;;;2.65;1.48;;;;;;;9.90;38.06;102254.09;5071261;28;20051;-71
2022/03/07 12:47:26;;;;;;;4.15;2.05;;;;;;;9.95;36.33;102251.22;5069353;28;20101;-73
2022/03/07 12:49:53;;;;;;;2.80;1.80;;;;;;;9.73;36.75;102245.41;5065536;28;20052;-73
2022/03/07 12:52:27;;;;;;;2.28;1.52;;;;;;;9.90;36.32;102240.97;5057542;28;20041;-74
2022/03/07 12:54:55;;;;;;;2.00;1.30;;;;;;;10.29;38.83;102246.78;5059276;28;20043;-73
2022/03/07 12:57:22;;;;;;;2.28;1.27;;;;;;;10.38;36.07;102229.63;5056630;28;20032;-73
2022/03/07 12:59:50;;;;;;;2.80;1.60;;;;;;;10.48;35.42;102229.03;5060616;28;20044;-73
2022/03/07 13:02:18;;;;;;;4.63;1.52;;;;;;;10.88;35.67;102228.50;5057657;28;20389;-70
2022/03/07 13:04:45;;;;;;;2.08;1.30;;;;;;;10.54;36.35;102223.47;5085593;28;20059;-72
2022/03/07 13:07:13;;;;;;;5.60;2.10;;;;;;;10.73;35.71;102216.22;5060183;28;20102;-72
2022/03/07 13:09:40;;;;;;;2.55;1.73;;;;;;;9.71;36.90;102221.88;5064849;28;20080;-74
2022/03/07 13:12:08;;;;;;;2.17;1.33;;;;;;;10.02;36.84;102214.09;5054663;28;20041;-74
2022/03/07 13:14:36;;;;;;;4.75;1.77;;;;;;;10.12;35.48;102203.94;5055411;28;20078;-73
2022/03/07 13:17:09;;;;;;;12.30;2.22;;;;;;;10.41;35.61;102210.16;5058648;28;20091;-71
2022/03/07 13:19:38;;;;;;;69.57;5.30;;;;;;;10.40;36.36;102203.22;5052923;28;20040;-73
2022/03/07 13:22:06;;;;;;;4.97;2.13;;;;;;;10.12;36.25;102204.81;5055581;28;20052;-73
2022/03/07 13:24:33;;;;;;;5.00;2.22;;;;;;;10.18;35.69;102201.84;5053887;28;20045;-72
2022/03/07 13:27:02;;;;;;;2.90;1.77;;;;;;;10.30;35.64;102201.16;5058609;28;20573;-71
2022/03/07 13:29:29;;;;;;;2.28;1.52;;;;;;;10.15;36.03;102186.25;5055172;28;20041;-73
2022/03/07 13:32:01;;;;;;;3.08;1.70;;;;;;;10.64;35.75;102187.84;5060252;28;20068;-74
2022/03/07 13:34:28;;;;;;;18.58;3.85;;;;;;;10.17;36.84;102187.00;5048953;28;20494;-74
2022/03/07 13:36:57;;;;;;;3.33;1.27;;;;;;;10.18;34.72;102195.75;5059027;28;20075;-73
2022/03/07 13:39:26;;;;;;;3.35;1.95;;;;;;;9.89;35.88;102188.56;5075189;28;20063;-73
2022/03/07 13:41:59;;;;;;;3.28;1.67;;;;;;;10.01;35.35;102185.31;5052638;28;20040;-71
2022/03/07 13:44:28;;;;;;;4.07;3.05;;;;;;;9.90;36.65;102183.22;5055678;28;20122;-72
2022/03/07 13:47:00;;;;;;;2.33;1.45;;;;;;;9.80;35.65;102189.03;5057898;28;20063;-72
2022/03/07 13:49:39;;;;;;;2.70;1.50;;;;;;;10.06;36.18;102181.47;5049319;28;20052;-70
2022/03/07 13:52:17;;;;;;;4.25;1.70;;;;;;;10.65;34.60;102181.66;5054181;28;20082;-70
2022/03/07 13:54:44;;;;;;;2.58;1.35;;;;;;;10.64;34.36;102179.97;5060442;28;20223;-71
2022/03/07 13:57:11;;;;;;;3.22;1.75;;;;;;;10.40;34.87;102186.59;5054789;28;20055;-74
2022/03/07 13:59:39;;;;;;;1.90;1.23;;;;;;;10.79;34.73;102179.13;5056917;28;20083;-73
2022/03/07 14:02:16;;;;;;;3.75;1.85;;;;;;;10.89;35.57;102175.84;5054329;28;20044;-72
2022/03/07 14:04:56;;;;;;;2.65;1.65;;;;;;;10.68;34.53;102171.81;5057497;28;20098;-73
2022/03/07 14:07:26;;;;;;;11.60;1.67;;;;;;;10.81;33.45;102167.56;5083013;27;20051;-72
2022/03/07 14:09:55;;;;;;;2.15;1.52;;;;;;;10.61;34.14;102175.72;5056854;28;20115;-72
2022/03/07 14:12:25;;;;;;;2.05;1.10;;;;;;;10.55;34.62;102168.19;5056598;28;20068;-71
2022/03/07 14:15:00;;;;;;;1.55;1.13;;;;;;;10.80;33.45;102167.63;5061600;28;20032;-72
2022/03/07 14:17:27;;;;;;;5.65;2.00;;;;;;;10.40;34.35;102170.81;5050021;28;20048;-74
2022/03/07 14:19:53;;;;;;;4.40;1.55;;;;;;;10.32;35.04;102161.69;5057671;28;20091;-72
2022/03/07 14:22:20;;;;;;;2.53;1.52;;;;;;;10.49;34.59;102163.31;5059503;28;20060;-72
2022/03/07 14:24:50;;;;;;;3.08;1.70;;;;;;;10.51;35.41;102160.56;5058043;28;20044;-72
2022/03/07 14:27:17;;;;;;;4.03;1.65;;;;;;;10.44;34.96;102159.22;5049851;28;20048;-71
2022/03/07 14:29:44;;;;;;;20.52;2.58;;;;;;;10.15;35.68;102164.41;5055498;28;20048;-71
2022/03/07 14:32:11;;;;;;;5.72;1.65;;;;;;;10.16;35.71;102153.81;5056399;28;20052;-74
2022/03/07 14:34:38;;;;;;;2.78;1.58;;;;;;;10.69;35.15;102144.59;5046891;28;20060;-72
2022/03/07 14:37:05;;;;;;;3.40;2.10;;;;;;;10.39;36.63;102146.34;5062285;28;20262;-73
2022/03/07 14:39:32;;;;;;;2.30;1.42;;;;;;;10.37;37.22;102134.25;5070470;28;20064;-73
2022/03/07 14:42:00;;;;;;;3.72;1.95;;;;;;;10.92;36.47;102138.84;5066233;28;20075;-70
2022/03/07 14:48:52;;;;;;;4.88;1.80;;;;;;;9.52;35.83;102135.47;5030778;28;21298;-72
2022/03/07 14:51:21;;;;;;;2.20;1.48;;;;;;;9.73;36.00;102132.56;5026968;28;20037;-73
2022/03/07 14:53:48;;;;;;;7.22;2.05;;;;;;;9.94;35.46;102129.63;5030034;28;20165;-71
2022/03/07 14:56:15;;;;;;;3.88;2.00;;;;;;;9.86;36.45;102126.59;5028076;28;20041;-73
2022/03/07 14:58:41;;;;;;;2.92;1.38;;;;;;;9.60;37.45;102124.50;5027104;28;20038;-71
2022/03/07 15:01:08;;;;;;;4.00;2.30;;;;;;;9.73;37.73;102125.53;5025968;28;20047;-74
2022/03/07 15:03:35;;;;;;;1.75;1.10;;;;;;;10.06;36.23;102136.84;5027583;28;20056;-68
2022/03/07 15:06:03;;;;;;;2.55;1.77;;;;;;;9.47;37.47;102127.03;5030169;28;20049;-68
2022/03/07 15:08:30;;;;;;;2.55;1.83;;;;;;;9.54;37.07;102129.22;5030295;28;20060;-68
2022/03/07 15:10:57;;;;;;;11.57;1.80;;;;;;;9.78;36.28;102123.53;5026770;28;20046;-73
2022/03/07 15:13:23;;;;;;;4.22;1.60;;;;;;;9.53;37.00;102127.53;5034193;28;20122;-69
2022/03/07 15:15:50;;;;;;;2.38;1.63;;;;;;;9.38;36.67;102119.63;5038463;28;20391;-72
2022/03/07 15:18:17;;;;;;;5.53;1.60;;;;;;;9.51;37.51;102123.28;5035592;28;20080;-73
2022/03/07 15:20:43;;;;;;;2.85;1.90;;;;;;;9.39;37.38;102123.94;5029229;28;20129;-73
2022/03/07 15:23:17;;;;;;;3.08;1.42;;;;;;;9.32;37.37;102127.78;5028494;28;20080;-72
2022/03/07 15:25:44;;;;;;;2.90;1.70;;;;;;;9.27;38.83;102122.81;5022597;28;20145;-71
2022/03/07 15:28:11;;;;;;;3.97;2.60;;;;;;;8.92;38.25;102117.66;5027003;28;20053;-68
2022/03/07 15:30:38;;;;;;;3.50;1.75;;;;;;;8.77;39.57;102108.81;5029709;28;20044;-73
2022/03/07 15:33:04;;;;;;;8.02;1.63;;;;;;;9.05;40.27;102113.50;5024428;28;20044;-75
2022/03/07 15:35:31;;;;;;;4.72;2.13;;;;;;;9.03;39.36;102105.69;5020641;28;20051;-71
2022/03/07 15:37:57;;;;;;;4.72;1.55;;;;;;;9.26;38.01;102101.91;5024333;28;20289;-72
2022/03/07 15:40:26;;;;;;;2.78;1.50;;;;;;;9.35;37.89;102106.66;5023461;28;20044;-72
2022/03/07 15:42:54;;;;;;;3.83;1.50;;;;;;;9.31;38.32;102102.53;5019749;28;20049;-71
2022/03/07 15:45:21;;;;;;;4.50;1.90;;;;;;;9.08;37.73;102105.47;5029327;28;20033;-72
2022/03/07 15:47:48;;;;;;;2.72;1.48;;;;;;;8.99;39.08;102091.06;5053751;28;20072;-73
2022/03/07 15:50:15;;;;;;;6.10;2.17;;;;;;;9.14;38.22;102089.44;5025770;28;20583;-71
2022/03/07 15:52:42;;;;;;;2.08;1.48;;;;;;;8.92;39.40;102087.06;5028309;28;20151;-71
2022/03/07 15:55:12;;;;;;;2.70;1.50;;;;;;;8.98;38.64;102093.78;5026607;28;20072;-72
2022/03/07 15:57:54;;;;;;;5.93;1.83;;;;;;;8.83;38.49;102086.69;5021399;28;20051;-71
2022/03/07 16:00:36;;;;;;;3.60;1.67;;;;;;;8.79;38.57;102085.16;5011407;28;20044;-73
2022/03/07 16:03:02;;;;;;;3.90;1.55;;;;;;;8.88;40.18;102080.28;5011394;28;20052;-71
2022/03/07 16:05:48;;;;;;;3.63;1.48;;;;;;;8.66;39.33;102088.47;5009202;28;20126;-72
2022/03/07 16:08:14;;;;;;;17.85;1.63;;;;;;;8.60;40.96;102073.91;5010126;28;20076;-71
2022/03/07 16:10:42;;;;;;;4.47;2.05;;;;;;;8.57;41.04;102071.44;5008757;28;20056;-72
2022/03/07 16:13:11;;;;;;;2.75;1.77;;;;;;;8.49;39.99;102073.59;5008801;28;20077;-71
2022/03/07 16:15:39;;;;;;;3.05;1.75;;;;;;;8.48;41.08;102078.88;5013649;28;20117;-73
2022/03/07 16:18:08;;;;;;;4.22;2.13;;;;;;;8.49;40.87;102084.06;5013362;28;20038;-71
2022/03/07 16:20:35;;;;;;;1.60;1.00;;;;;;;8.39;39.73;102079.34;5011730;28;20077;-71
2022/03/07 16:23:01;;;;;;;2.55;1.48;;;;;;;8.20;40.19;102074.16;5010669;28;20515;-73
2022/03/07 16:25:28;;;;;;;1.52;1.25;;;;;;;8.11;41.03;102069.34;5011394;28;20111;-72
2022/03/07 16:27:55;;;;;;;7.00;1.70;;;;;;;7.97;41.44;102066.53;5011752;28;20056;-72
2022/03/07 16:30:23;;;;;;;3.75;1.65;;;;;;;7.86;41.76;102067.09;5018129;28;20050;-74
2022/03/07 16:32:50;;;;;;;2.95;1.67;;;;;;;7.78;41.89;102067.47;5013135;28;20037;-71
2022/03/07 16:35:17;;;;;;;9.85;2.10;;;;;;;7.77;42.76;102072.75;5005584;28;20049;-70
2022/03/07 16:37:44;;;;;;;5.03;2.60;;;;;;;7.72;42.75;102069.53;5013267;28;20073;-72
2022/03/07 16:40:12;;;;;;;2.53;1.75;;;;;;;7.63;43.02;102072.56;5015377;28;20080;-72
2022/03/07 16:42:39;;;;;;;2.50;1.38;;;;;;;7.60;43.70;102065.72;5008347;28;20050;-71
2022/03/07 16:45:09;;;;;;;2.55;1.50;;;;;;;7.54;43.82;102067.75;5011780;28;20040;-70
2022/03/07 16:47:37;;;;;;;2.15;1.52;;;;;;;7.45;44.41;102065.53;5013649;28;20053;-71
2022/03/07 16:50:04;;;;;;;4.20;1.48;;;;;;;7.36;44.14;102064.22;5015164;28;20045;-73
2022/03/07 16:52:31;;;;;;;3.22;1.35;;;;;;;7.28;44.73;102061.09;5014350;28;20037;-72
2022/03/07 16:54:58;;;;;;;2.83;1.60;;;;;;;7.15;44.86;102061.69;5013670;28;20045;-74
2022/03/07 16:57:24;;;;;;;3.05;1.55;;;;;;;7.03;45.91;102067.44;5015186;28;20065;-73
2022/03/07 16:59:51;;;;;;;2.42;1.42;;;;;;;6.95;45.34;102072.16;5015363;28;20215;-73
2022/03/07 17:02:18;;;;;;;3.35;1.58;;;;;;;6.97;45.37;102061.66;5014580;28;20108;-73
2022/03/07 17:04:46;;;;;;;2.92;1.38;;;;;;;6.83;45.61;102067.47;5009256;28;20068;-73
2022/03/07 17:07:13;;;;;;;2.97;1.38;;;;;;;6.84;45.44;102066.56;5013247;28;20046;-74
2022/03/07 17:09:39;;;;;;;3.65;1.67;;;;;;;6.72;46.74;102072.28;5012697;28;20156;-72
2022/03/07 17:12:06;;;;;;;3.30;1.58;;;;;;;6.61;46.96;102074.50;5012292;28;20105;-73
2022/03/07 17:14:33;;;;;;;4.55;1.80;;;;;;;6.51;46.79;102077.56;5018163;28;20175;-72
2022/03/07 17:17:00;;;;;;;1.90;1.30;;;;;;;6.36;47.82;102073.81;5022330;28;20071;-72
2022/03/07 17:19:27;;;;;;;7.38;2.92;;;;;;;6.29;48.41;102068.94;5013512;28;20136;-73
2022/03/07 17:21:54;;;;;;;2.47;1.30;;;;;;;6.13;49.10;102080.03;5022044;28;20049;-70
2022/03/07 17:24:21;;;;;;;5.22;1.92;;;;;;;5.95;49.26;102072.94;5032447;28;20037;-72
